sensor_id;sensor_type;location;lat;lon;timestamp;temperature;humidity
13436;DHT22;6790;49.520;8.504;2023-01-15T00:01:27;9.90;99.90
13436;DHT22;6790;49.520;8.504;2023-01-15T00:03:56;9.90;99.90
13436;DHT22;6790;49.520;8.504;2023-01-15T00:06:23;9.90;99.90
13436;DHT22;6790;49.520;8.504;2023-01-15T00:08:51;9.90;99.90
13436;DHT22;6790;49.520;8.504;2023-01-15T00:11:17;9.90;99.90
13436;DHT22;6790;49.520;8.504;2023-01-15T00:13:44;9.90;99.90
13436;DHT22;6790;49.520;8.504;2023-01-15T00:16:13;9.80;99.90
13436;DHT22;6790;49.520;8.504;2023-01-15T00:18:40;9.90;99.90
13436;DHT22;6790;49.520;8.504;2023-01-15T00:21:10;9.90;99.90
13436;DHT22;6790;49.520;8.504;2023-01-15T00:23:37;10.00;99.90
13436;DHT22;6790;49.520;8.504;2023-01-15T00:26:27;9.90;99.90
13436;DHT22;6790;49.520;8.504;2023-01-15T00:29:12;10.00;99.90
13436;DHT22;6790;49.520;8.504;2023-01-15T00:31:38;10.00;99.90
13436;DHT22;6790;49.520;8.504;2023-01-15T00:34:04;10.00;99.90
13436;DHT22;6790;49.520;8.504;2023-01-15T00:36:30;10.00;99.90
13436;DHT22;6790;49.520;8.504;2023-01-15T00:38:55;10.10;99.90
13436;DHT22;6790;49.520;8.504;2023-01-15T00:41:22;10.00;99.90
13436;DHT22;6790;49.520;8.504;2023-01-15T00:43:47;10.00;99.90
13436;DHT22;6790;49.520;8.504;2023-01-15T00:46:13;10.10;99.90
13436;DHT22;6790;49.520;8.504;2023-01-15T00:48:39;10.10;99.90
13436;DHT22;6790;49.520;8.504;2023-01-15T00:51:05;10.10;99.90
13436;DHT22;6790;49.520;8.504;2023-01-15T00:53:31;10.00;99.90
13436;DHT22;6790;49.520;8.504;2023-01-15T00:55:57;10.10;99.90
13436;DHT22;6790;49.520;8.504;2023-01-15T00:58:23;10.10;99.90
13436;DHT22;6790;49.520;8.504;2023-01-15T01:00:53;10.10;99.90
13436;DHT22;6790;49.520;8.504;2023-01-15T01:03:22;10.10;99.90
13436;DHT22;6790;49.520;8.504;2023-01-15T01:05:49;10.10;99.90
13436;DHT22;6790;49.520;8.504;2023-01-15T01:08:15;10.10;99.90
13436;DHT22;6790;49.520;8.504;2023-01-15T01:10:41;10.10;99.90
13436;DHT22;6790;49.520;8.504;2023-01-15T01:13:07;10.00;99.90
13436;DHT22;6790;49.520;8.504;2023-01-15T01:15:34;10.10;99.90
13436;DHT22;6790;49.520;8.504;2023-01-15T01:18:00;10.10;99.90
13436;DHT22;6790;49.520;8.504;2023-01-15T01:20:27;10.00;99.90
13436;DHT22;6790;49.520;8.504;2023-01-15T01:22:52;10.10;99.90
13436;DHT22;6790;49.520;8.504;2023-01-15T01:25:18;10.10;99.90
13436;DHT22;6790;49.520;8.504;2023-01-15T01:27:45;10.20;99.90
13436;DHT22;6790;49.520;8.504;2023-01-15T01:30:11;10.10;99.90
13436;DHT22;6790;49.520;8.504;2023-01-15T01:32:37;10.10;99.90
13436;DHT22;6790;49.520;8.504;2023-01-15T01:35:03;10.10;99.90
13436;DHT22;6790;49.520;8.504;2023-01-15T01:37:30;10.10;99.90
13436;DHT22;6790;49.520;8.504;2023-01-15T01:39:55;10.10;99.90
13436;DHT22;6790;49.520;8.504;2023-01-15T01:42:21;10.10;99.90
13436;DHT22;6790;49.520;8.504;2023-01-15T01:47:24;10.10;99.90
13436;DHT22;6790;49.520;8.504;2023-01-15T01:49:53;10.00;99.90
13436;DHT22;6790;49.520;8.504;2023-01-15T01:52:51;10.10;99.90
13436;DHT22;6790;49.520;8.504;2023-01-15T01:55:21;10.10;99.90
13436;DHT22;6790;49.520;8.504;2023-01-15T01:57:50;10.20;99.90
13436;DHT22;6790;49.520;8.504;2023-01-15T02:00:16;10.10;99.90
13436;DHT22;6790;49.520;8.504;2023-01-15T02:02:45;10.10;99.90
13436;DHT22;6790;49.520;8.504;2023-01-15T02:05:22;10.20;99.90
13436;DHT22;6790;49.520;8.504;2023-01-15T02:07:53;10.10;99.90
13436;DHT22;6790;49.520;8.504;2023-01-15T02:10:19;10.20;99.90
13436;DHT22;6790;49.520;8.504;2023-01-15T02:12:52;10.10;99.90
13436;DHT22;6790;49.520;8.504;2023-01-15T02:15:53;10.20;99.90
13436;DHT22;6790;49.520;8.504;2023-01-15T02:18:35;10.10;99.90
13436;DHT22;6790;49.520;8.504;2023-01-15T02:21:39;10.10;99.90
13436;DHT22;6790;49.520;8.504;2023-01-15T02:24:35;10.10;99.90
13436;DHT22;6790;49.520;8.504;2023-01-15T02:27:16;10.20;99.90
13436;DHT22;6790;49.520;8.504;2023-01-15T02:32:50;10.10;99.90
13436;DHT22;6790;49.520;8.504;2023-01-15T02:35:30;10.00;99.90
13436;DHT22;6790;49.520;8.504;2023-01-15T02:38:01;10.10;99.90
13436;DHT22;6790;49.520;8.504;2023-01-15T02:40:30;10.00;99.90
13436;DHT22;6790;49.520;8.504;2023-01-15T02:42:58;10.10;99.90
13436;DHT22;6790;49.520;8.504;2023-01-15T02:45:32;10.00;99.90
13436;DHT22;6790;49.520;8.504;2023-01-15T02:48:07;10.10;99.90
13436;DHT22;6790;49.520;8.504;2023-01-15T02:50:40;10.00;99.90
13436;DHT22;6790;49.520;8.504;2023-01-15T02:53:13;10.00;99.90
13436;DHT22;6790;49.520;8.504;2023-01-15T02:55:45;10.20;99.90
13436;DHT22;6790;49.520;8.504;2023-01-15T02:58:15;10.00;99.90
13436;DHT22;6790;49.520;8.504;2023-01-15T03:00:44;10.00;99.90
13436;DHT22;6790;49.520;8.504;2023-01-15T03:03:41;9.80;99.90
13436;DHT22;6790;49.520;8.504;2023-01-15T03:06:36;9.30;99.90
13436;DHT22;6790;49.520;8.504;2023-01-15T03:09:02;8.80;99.90
13436;DHT22;6790;49.520;8.504;2023-01-15T03:11:29;8.70;99.90
13436;DHT22;6790;49.520;8.504;2023-01-15T03:14:23;8.50;99.90
13436;DHT22;6790;49.520;8.504;2023-01-15T03:16:57;8.60;99.90
13436;DHT22;6790;49.520;8.504;2023-01-15T03:19:48;8.40;99.90
13436;DHT22;6790;49.520;8.504;2023-01-15T03:25:20;8.50;99.90
13436;DHT22;6790;49.520;8.504;2023-01-15T03:27:54;8.40;99.90
13436;DHT22;6790;49.520;8.504;2023-01-15T03:30:21;8.40;99.90
13436;DHT22;6790;49.520;8.504;2023-01-15T03:32:47;8.40;99.90
13436;DHT22;6790;49.520;8.504;2023-01-15T03:35:43;8.20;99.90
13436;DHT22;6790;49.520;8.504;2023-01-15T03:38:13;8.30;99.90
13436;DHT22;6790;49.520;8.504;2023-01-15T03:40:52;8.40;99.90
13436;DHT22;6790;49.520;8.504;2023-01-15T03:43:20;8.20;99.90
13436;DHT22;6790;49.520;8.504;2023-01-15T03:46:16;8.40;99.90
13436;DHT22;6790;49.520;8.504;2023-01-15T03:48:58;8.20;99.90
13436;DHT22;6790;49.520;8.504;2023-01-15T03:51:43;8.20;99.90
13436;DHT22;6790;49.520;8.504;2023-01-15T03:54:21;8.10;99.90
13436;DHT22;6790;49.520;8.504;2023-01-15T03:56:56;8.00;99.90
13436;DHT22;6790;49.520;8.504;2023-01-15T03:59:36;8.30;99.90
13436;DHT22;6790;49.520;8.504;2023-01-15T04:02:07;8.20;99.90
13436;DHT22;6790;49.520;8.504;2023-01-15T04:04:36;8.00;99.90
13436;DHT22;6790;49.520;8.504;2023-01-15T04:07:02;8.00;99.90
13436;DHT22;6790;49.520;8.504;2023-01-15T04:09:29;8.10;99.90
13436;DHT22;6790;49.520;8.504;2023-01-15T04:11:59;8.20;99.90
13436;DHT22;6790;49.520;8.504;2023-01-15T04:14:25;8.00;99.90
13436;DHT22;6790;49.520;8.504;2023-01-15T04:16:54;7.90;99.90
13436;DHT22;6790;49.520;8.504;2023-01-15T04:19:19;8.00;99.90
13436;DHT22;6790;49.520;8.504;2023-01-15T04:21:45;8.10;99.90
13436;DHT22;6790;49.520;8.504;2023-01-15T04:24:11;7.90;99.90
13436;DHT22;6790;49.520;8.504;2023-01-15T04:26:36;8.10;99.90
13436;DHT22;6790;49.520;8.504;2023-01-15T04:29:02;8.00;99.90
13436;DHT22;6790;49.520;8.504;2023-01-15T04:31:28;8.00;99.90
13436;DHT22;6790;49.520;8.504;2023-01-15T04:33:56;7.90;99.90
13436;DHT22;6790;49.520;8.504;2023-01-15T04:36:22;7.80;99.90
13436;DHT22;6790;49.520;8.504;2023-01-15T04:38:48;7.80;99.90
13436;DHT22;6790;49.520;8.504;2023-01-15T04:41:13;7.60;99.90
13436;DHT22;6790;49.520;8.504;2023-01-15T04:43:57;7.80;99.90
13436;DHT22;6790;49.520;8.504;2023-01-15T04:49:04;7.70;99.90
13436;DHT22;6790;49.520;8.504;2023-01-15T04:51:31;7.60;99.90
13436;DHT22;6790;49.520;8.504;2023-01-15T04:53:56;7.70;99.90
13436;DHT22;6790;49.520;8.504;2023-01-15T04:56:22;7.80;99.90
13436;DHT22;6790;49.520;8.504;2023-01-15T04:58:48;7.60;99.90
13436;DHT22;6790;49.520;8.504;2023-01-15T05:01:16;7.60;99.90
13436;DHT22;6790;49.520;8.504;2023-01-15T05:03:42;7.70;99.90
13436;DHT22;6790;49.520;8.504;2023-01-15T05:06:08;7.70;99.90
13436;DHT22;6790;49.520;8.504;2023-01-15T05:08:34;7.70;99.90
13436;DHT22;6790;49.520;8.504;2023-01-15T05:11:02;7.70;99.90
13436;DHT22;6790;49.520;8.504;2023-01-15T05:13:29;7.70;99.90
13436;DHT22;6790;49.520;8.504;2023-01-15T05:16:10;7.70;99.90
13436;DHT22;6790;49.520;8.504;2023-01-15T05:18:45;7.50;99.90
13436;DHT22;6790;49.520;8.504;2023-01-15T05:21:17;7.60;99.90
13436;DHT22;6790;49.520;8.504;2023-01-15T05:23:45;7.50;99.90
13436;DHT22;6790;49.520;8.504;2023-01-15T05:26:11;7.50;99.90
13436;DHT22;6790;49.520;8.504;2023-01-15T05:28:37;7.40;99.90
13436;DHT22;6790;49.520;8.504;2023-01-15T05:31:11;7.40;99.90
13436;DHT22;6790;49.520;8.504;2023-01-15T05:33:39;7.40;99.90
13436;DHT22;6790;49.520;8.504;2023-01-15T05:36:07;7.40;99.90
13436;DHT22;6790;49.520;8.504;2023-01-15T05:38:35;7.30;99.90
13436;DHT22;6790;49.520;8.504;2023-01-15T05:41:08;7.40;99.90
13436;DHT22;6790;49.520;8.504;2023-01-15T05:44:01;7.40;99.90
13436;DHT22;6790;49.520;8.504;2023-01-15T05:46:28;7.40;99.90
13436;DHT22;6790;49.520;8.504;2023-01-15T05:48:57;7.40;99.90
13436;DHT22;6790;49.520;8.504;2023-01-15T05:51:25;7.40;99.90
13436;DHT22;6790;49.520;8.504;2023-01-15T05:53:51;7.50;99.90
13436;DHT22;6790;49.520;8.504;2023-01-15T05:56:16;7.40;99.90
13436;DHT22;6790;49.520;8.504;2023-01-15T05:58:42;7.50;99.90
13436;DHT22;6790;49.520;8.504;2023-01-15T06:01:08;7.30;99.90
13436;DHT22;6790;49.520;8.504;2023-01-15T06:03:34;7.30;99.90
13436;DHT22;6790;49.520;8.504;2023-01-15T06:06:00;7.30;99.90
13436;DHT22;6790;49.520;8.504;2023-01-15T06:08:26;7.20;99.90
13436;DHT22;6790;49.520;8.504;2023-01-15T06:10:52;7.30;99.90
13436;DHT22;6790;49.520;8.504;2023-01-15T06:13:18;7.20;99.90
13436;DHT22;6790;49.520;8.504;2023-01-15T06:15:44;7.10;99.90
13436;DHT22;6790;49.520;8.504;2023-01-15T06:18:10;7.20;99.90
13436;DHT22;6790;49.520;8.504;2023-01-15T06:20:37;7.00;99.90
13436;DHT22;6790;49.520;8.504;2023-01-15T06:23:04;7.00;99.90
13436;DHT22;6790;49.520;8.504;2023-01-15T06:25:32;7.00;99.90
13436;DHT22;6790;49.520;8.504;2023-01-15T06:28:05;6.90;99.90
13436;DHT22;6790;49.520;8.504;2023-01-15T06:30:32;6.80;99.90
13436;DHT22;6790;49.520;8.504;2023-01-15T06:32:59;6.70;99.90
13436;DHT22;6790;49.520;8.504;2023-01-15T06:35:25;6.70;99.90
13436;DHT22;6790;49.520;8.504;2023-01-15T06:37:51;6.70;99.90
13436;DHT22;6790;49.520;8.504;2023-01-15T06:40:17;6.90;99.90
13436;DHT22;6790;49.520;8.504;2023-01-15T06:42:43;6.80;99.90
13436;DHT22;6790;49.520;8.504;2023-01-15T06:45:32;6.90;99.90
13436;DHT22;6790;49.520;8.504;2023-01-15T06:48:21;6.90;99.90
13436;DHT22;6790;49.520;8.504;2023-01-15T06:50:47;6.90;99.90
13436;DHT22;6790;49.520;8.504;2023-01-15T06:53:13;6.80;99.90
13436;DHT22;6790;49.520;8.504;2023-01-15T06:55:38;6.90;99.90
13436;DHT22;6790;49.520;8.504;2023-01-15T06:58:04;6.80;99.90
13436;DHT22;6790;49.520;8.504;2023-01-15T07:00:30;6.90;99.90
13436;DHT22;6790;49.520;8.504;2023-01-15T07:02:59;6.90;99.90
13436;DHT22;6790;49.520;8.504;2023-01-15T07:05:25;6.80;99.90
13436;DHT22;6790;49.520;8.504;2023-01-15T07:07:51;6.90;99.90
13436;DHT22;6790;49.520;8.504;2023-01-15T07:10:17;6.90;99.90
13436;DHT22;6790;49.520;8.504;2023-01-15T07:12:42;6.90;99.90
13436;DHT22;6790;49.520;8.504;2023-01-15T07:15:09;6.90;99.90
13436;DHT22;6790;49.520;8.504;2023-01-15T07:17:35;6.90;99.90
13436;DHT22;6790;49.520;8.504;2023-01-15T07:20:00;6.80;99.90
13436;DHT22;6790;49.520;8.504;2023-01-15T07:22:26;6.90;99.90
13436;DHT22;6790;49.520;8.504;2023-01-15T07:24:52;6.90;99.90
13436;DHT22;6790;49.520;8.504;2023-01-15T07:27:17;6.90;99.90
13436;DHT22;6790;49.520;8.504;2023-01-15T07:29:43;6.80;99.90
13436;DHT22;6790;49.520;8.504;2023-01-15T07:32:09;6.80;99.90
13436;DHT22;6790;49.520;8.504;2023-01-15T07:34:36;6.80;99.90
13436;DHT22;6790;49.520;8.504;2023-01-15T07:37:01;6.80;99.90
13436;DHT22;6790;49.520;8.504;2023-01-15T07:39:27;6.80;99.90
13436;DHT22;6790;49.520;8.504;2023-01-15T07:41:53;6.70;99.90
13436;DHT22;6790;49.520;8.504;2023-01-15T07:44:37;6.70;99.90
13436;DHT22;6790;49.520;8.504;2023-01-15T07:47:23;6.70;99.90
13436;DHT22;6790;49.520;8.504;2023-01-15T07:50:14;6.60;99.90
13436;DHT22;6790;49.520;8.504;2023-01-15T07:52:45;6.50;99.90
13436;DHT22;6790;49.520;8.504;2023-01-15T07:55:11;6.50;99.90
13436;DHT22;6790;49.520;8.504;2023-01-15T07:57:38;6.50;99.90
13436;DHT22;6790;49.520;8.504;2023-01-15T08:00:07;6.50;99.90
13436;DHT22;6790;49.520;8.504;2023-01-15T08:02:40;6.50;99.90
13436;DHT22;6790;49.520;8.504;2023-01-15T08:05:07;6.40;99.90
13436;DHT22;6790;49.520;8.504;2023-01-15T08:07:38;6.40;99.90
13436;DHT22;6790;49.520;8.504;2023-01-15T08:10:05;6.40;99.90
13436;DHT22;6790;49.520;8.504;2023-01-15T08:12:32;6.40;99.90
13436;DHT22;6790;49.520;8.504;2023-01-15T08:15:16;6.40;99.90
13436;DHT22;6790;49.520;8.504;2023-01-15T08:17:46;6.40;99.90
13436;DHT22;6790;49.520;8.504;2023-01-15T08:20:19;6.40;99.90
13436;DHT22;6790;49.520;8.504;2023-01-15T08:22:47;6.40;99.90
13436;DHT22;6790;49.520;8.504;2023-01-15T08:25:16;6.30;99.90
13436;DHT22;6790;49.520;8.504;2023-01-15T08:27:43;6.30;99.90
13436;DHT22;6790;49.520;8.504;2023-01-15T08:30:15;6.40;99.90
13436;DHT22;6790;49.520;8.504;2023-01-15T08:32:42;6.30;99.90
13436;DHT22;6790;49.520;8.504;2023-01-15T08:35:09;6.30;99.90
13436;DHT22;6790;49.520;8.504;2023-01-15T08:37:35;6.30;99.90
13436;DHT22;6790;49.520;8.504;2023-01-15T08:40:01;6.30;99.90
13436;DHT22;6790;49.520;8.504;2023-01-15T08:42:26;6.30;99.90
13436;DHT22;6790;49.520;8.504;2023-01-15T08:44:52;6.30;99.90
13436;DHT22;6790;49.520;8.504;2023-01-15T08:47:18;6.30;99.90
13436;DHT22;6790;49.520;8.504;2023-01-15T08:49:45;6.30;99.90
13436;DHT22;6790;49.520;8.504;2023-01-15T08:52:12;6.30;99.90
13436;DHT22;6790;49.520;8.504;2023-01-15T08:54:39;6.30;99.90
13436;DHT22;6790;49.520;8.504;2023-01-15T08:57:04;6.30;99.90
13436;DHT22;6790;49.520;8.504;2023-01-15T08:59:30;6.30;99.90
13436;DHT22;6790;49.520;8.504;2023-01-15T09:01:56;6.40;99.90
13436;DHT22;6790;49.520;8.504;2023-01-15T09:04:21;6.40;99.90
13436;DHT22;6790;49.520;8.504;2023-01-15T09:06:48;6.30;99.90
13436;DHT22;6790;49.520;8.504;2023-01-15T09:09:14;6.40;99.90
13436;DHT22;6790;49.520;8.504;2023-01-15T09:11:40;6.40;99.90
13436;DHT22;6790;49.520;8.504;2023-01-15T09:14:07;6.40;99.90
13436;DHT22;6790;49.520;8.504;2023-01-15T09:16:37;6.40;99.90
13436;DHT22;6790;49.520;8.504;2023-01-15T09:19:04;6.40;99.90
13436;DHT22;6790;49.520;8.504;2023-01-15T09:21:31;6.40;99.90
13436;DHT22;6790;49.520;8.504;2023-01-15T09:23:57;6.40;99.90
13436;DHT22;6790;49.520;8.504;2023-01-15T09:26:34;6.40;99.90
13436;DHT22;6790;49.520;8.504;2023-01-15T09:29:03;6.40;99.90
13436;DHT22;6790;49.520;8.504;2023-01-15T09:31:30;6.40;99.90
13436;DHT22;6790;49.520;8.504;2023-01-15T09:33:56;6.40;99.90
13436;DHT22;6790;49.520;8.504;2023-01-15T09:36:27;6.40;99.90
13436;DHT22;6790;49.520;8.504;2023-01-15T09:38:58;6.40;99.90
13436;DHT22;6790;49.520;8.504;2023-01-15T09:41:51;6.50;99.90
13436;DHT22;6790;49.520;8.504;2023-01-15T09:48:13;6.60;99.90
13436;DHT22;6790;49.520;8.504;2023-01-15T09:51:00;6.60;99.90
13436;DHT22;6790;49.520;8.504;2023-01-15T09:56:22;6.60;99.90
13436;DHT22;6790;49.520;8.504;2023-01-15T09:58:49;6.60;99.90
13436;DHT22;6790;49.520;8.504;2023-01-15T10:01:19;6.60;99.90
13436;DHT22;6790;49.520;8.504;2023-01-15T10:04:01;6.70;99.90
13436;DHT22;6790;49.520;8.504;2023-01-15T10:06:43;6.70;99.90
13436;DHT22;6790;49.520;8.504;2023-01-15T10:09:33;6.70;99.90
13436;DHT22;6790;49.520;8.504;2023-01-15T10:12:12;6.70;99.90
13436;DHT22;6790;49.520;8.504;2023-01-15T10:15:13;6.70;99.90
13436;DHT22;6790;49.520;8.504;2023-01-15T10:17:44;6.80;99.90
13436;DHT22;6790;49.520;8.504;2023-01-15T10:26:30;6.70;99.90
13436;DHT22;6790;49.520;8.504;2023-01-15T10:32:38;5.90;99.90
13436;DHT22;6790;49.520;8.504;2023-01-15T10:35:26;5.40;99.90
13436;DHT22;6790;49.520;8.504;2023-01-15T10:38:11;5.10;99.90
13436;DHT22;6790;49.520;8.504;2023-01-15T10:43:46;5.10;99.90
13436;DHT22;6790;49.520;8.504;2023-01-15T10:46:29;5.10;99.90
13436;DHT22;6790;49.520;8.504;2023-01-15T10:49:18;5.00;99.90
13436;DHT22;6790;49.520;8.504;2023-01-15T10:51:45;5.00;99.90
13436;DHT22;6790;49.520;8.504;2023-01-15T10:54:20;5.10;99.90
13436;DHT22;6790;49.520;8.504;2023-01-15T10:57:10;5.10;99.90
13436;DHT22;6790;49.520;8.504;2023-01-15T10:59:45;5.10;99.90
13436;DHT22;6790;49.520;8.504;2023-01-15T11:04:47;5.10;99.90
13436;DHT22;6790;49.520;8.504;2023-01-15T11:07:13;5.00;99.90
13436;DHT22;6790;49.520;8.504;2023-01-15T11:09:40;5.00;99.90
13436;DHT22;6790;49.520;8.504;2023-01-15T11:12:27;5.00;99.90
13436;DHT22;6790;49.520;8.504;2023-01-15T11:15:23;5.00;99.90
13436;DHT22;6790;49.520;8.504;2023-01-15T11:18:15;5.00;99.90
13436;DHT22;6790;49.520;8.504;2023-01-15T11:21:16;4.80;99.90
13436;DHT22;6790;49.520;8.504;2023-01-15T11:23:43;4.90;99.90
13436;DHT22;6790;49.520;8.504;2023-01-15T11:26:16;4.80;99.90
13436;DHT22;6790;49.520;8.504;2023-01-15T11:28:45;4.80;99.90
13436;DHT22;6790;49.520;8.504;2023-01-15T11:31:12;4.70;99.90
13436;DHT22;6790;49.520;8.504;2023-01-15T11:33:39;4.70;99.90
13436;DHT22;6790;49.520;8.504;2023-01-15T11:36:23;4.60;99.90
13436;DHT22;6790;49.520;8.504;2023-01-15T11:38:50;4.60;99.90
13436;DHT22;6790;49.520;8.504;2023-01-15T11:44:12;4.60;99.90
13436;DHT22;6790;49.520;8.504;2023-01-15T11:46:56;4.60;99.90
13436;DHT22;6790;49.520;8.504;2023-01-15T11:49:52;4.70;99.90
13436;DHT22;6790;49.520;8.504;2023-01-15T11:52:54;4.70;99.90
13436;DHT22;6790;49.520;8.504;2023-01-15T11:55:25;4.60;99.90
13436;DHT22;6790;49.520;8.504;2023-01-15T11:57:51;4.60;99.90
13436;DHT22;6790;49.520;8.504;2023-01-15T12:00:27;4.60;99.90
13436;DHT22;6790;49.520;8.504;2023-01-15T12:02:58;4.50;99.90
13436;DHT22;6790;49.520;8.504;2023-01-15T12:05:30;4.60;99.90
13436;DHT22;6790;49.520;8.504;2023-01-15T12:08:02;4.50;99.90
13436;DHT22;6790;49.520;8.504;2023-01-15T12:10:54;4.50;99.90
13436;DHT22;6790;49.520;8.504;2023-01-15T12:20:22;4.70;99.90
13436;DHT22;6790;49.520;8.504;2023-01-15T12:23:34;5.00;99.90
13436;DHT22;6790;49.520;8.504;2023-01-15T12:26:07;5.10;99.90
13436;DHT22;6790;49.520;8.504;2023-01-15T12:28:53;5.10;99.90
13436;DHT22;6790;49.520;8.504;2023-01-15T12:31:40;5.10;99.90
13436;DHT22;6790;49.520;8.504;2023-01-15T12:34:26;5.20;99.90
13436;DHT22;6790;49.520;8.504;2023-01-15T12:37:03;5.10;99.90
13436;DHT22;6790;49.520;8.504;2023-01-15T12:39:34;5.30;99.90
13436;DHT22;6790;49.520;8.504;2023-01-15T12:42:08;5.20;99.90
13436;DHT22;6790;49.520;8.504;2023-01-15T12:45:01;5.30;99.90
13436;DHT22;6790;49.520;8.504;2023-01-15T12:50:47;5.50;99.90
13436;DHT22;6790;49.520;8.504;2023-01-15T12:53:41;5.50;99.90
13436;DHT22;6790;49.520;8.504;2023-01-15T12:56:28;5.60;99.90
13436;DHT22;6790;49.520;8.504;2023-01-15T12:59:04;5.70;99.90
13436;DHT22;6790;49.520;8.504;2023-01-15T13:05:01;5.90;99.90
13436;DHT22;6790;49.520;8.504;2023-01-15T13:08:00;6.00;99.90
13436;DHT22;6790;49.520;8.504;2023-01-15T13:10:31;6.00;99.90
13436;DHT22;6790;49.520;8.504;2023-01-15T13:13:15;6.10;99.90
13436;DHT22;6790;49.520;8.504;2023-01-15T13:18:35;6.10;99.90
13436;DHT22;6790;49.520;8.504;2023-01-15T13:21:15;6.30;99.90
13436;DHT22;6790;49.520;8.504;2023-01-15T13:23:46;6.40;99.90
13436;DHT22;6790;49.520;8.504;2023-01-15T13:30:10;6.50;99.90
13436;DHT22;6790;49.520;8.504;2023-01-15T13:32:48;6.50;99.90
13436;DHT22;6790;49.520;8.504;2023-01-15T13:35:32;6.50;99.90
13436;DHT22;6790;49.520;8.504;2023-01-15T13:38:05;6.60;99.90
13436;DHT22;6790;49.520;8.504;2023-01-15T13:40:40;6.60;99.90
13436;DHT22;6790;49.520;8.504;2023-01-15T13:43:24;6.70;99.90
13436;DHT22;6790;49.520;8.504;2023-01-15T13:45:54;6.60;99.90
13436;DHT22;6790;49.520;8.504;2023-01-15T13:48:29;6.60;99.90
13436;DHT22;6790;49.520;8.504;2023-01-15T13:50:58;6.60;99.90
13436;DHT22;6790;49.520;8.504;2023-01-15T13:56:00;6.70;99.90
13436;DHT22;6790;49.520;8.504;2023-01-15T13:58:37;6.70;99.90
13436;DHT22;6790;49.520;8.504;2023-01-15T14:01:20;6.60;99.90
13436;DHT22;6790;49.520;8.504;2023-01-15T14:06:41;6.70;99.90
13436;DHT22;6790;49.520;8.504;2023-01-15T14:17:47;6.60;99.90
13436;DHT22;6790;49.520;8.504;2023-01-15T14:20:44;6.70;99.90
13436;DHT22;6790;49.520;8.504;2023-01-15T14:23:34;6.70;99.90
13436;DHT22;6790;49.520;8.504;2023-01-15T14:30:04;6.60;99.90
13436;DHT22;6790;49.520;8.504;2023-01-15T14:35:19;6.50;99.90
13436;DHT22;6790;49.520;8.504;2023-01-15T14:37:53;6.60;99.90
13436;DHT22;6790;49.520;8.504;2023-01-15T14:40:27;6.60;99.90
13436;DHT22;6790;49.520;8.504;2023-01-15T14:42:56;6.50;99.90
13436;DHT22;6790;49.520;8.504;2023-01-15T14:45:28;6.60;99.90
13436;DHT22;6790;49.520;8.504;2023-01-15T14:48:03;6.60;99.90
13436;DHT22;6790;49.520;8.504;2023-01-15T14:50:47;6.70;99.90
13436;DHT22;6790;49.520;8.504;2023-01-15T14:53:28;6.70;99.90
13436;DHT22;6790;49.520;8.504;2023-01-15T14:56:22;6.90;99.90
13436;DHT22;6790;49.520;8.504;2023-01-15T15:02:00;7.00;99.90
13436;DHT22;6790;49.520;8.504;2023-01-15T15:04:48;6.80;99.90
13436;DHT22;6790;49.520;8.504;2023-01-15T15:07:21;6.60;99.90
13436;DHT22;6790;49.520;8.504;2023-01-15T15:13:08;6.40;99.90
13436;DHT22;6790;49.520;8.504;2023-01-15T15:15:48;6.30;99.90
13436;DHT22;6790;49.520;8.504;2023-01-15T15:18:40;6.50;99.90
13436;DHT22;6790;49.520;8.504;2023-01-15T15:21:23;6.50;99.90
13436;DHT22;6790;49.520;8.504;2023-01-15T15:24:19;6.50;99.90
13436;DHT22;6790;49.520;8.504;2023-01-15T15:26:48;6.60;99.90
13436;DHT22;6790;49.520;8.504;2023-01-15T15:29:16;6.40;99.90
13436;DHT22;6790;49.520;8.504;2023-01-15T15:31:46;6.30;99.90
13436;DHT22;6790;49.520;8.504;2023-01-15T15:34:21;6.20;99.90
13436;DHT22;6790;49.520;8.504;2023-01-15T15:36:50;6.40;99.90
13436;DHT22;6790;49.520;8.504;2023-01-15T15:39:27;6.30;99.90
13436;DHT22;6790;49.520;8.504;2023-01-15T15:42:24;6.10;99.90
13436;DHT22;6790;49.520;8.504;2023-01-15T15:45:22;6.10;99.90
13436;DHT22;6790;49.520;8.504;2023-01-15T15:51:04;6.00;99.90
13436;DHT22;6790;49.520;8.504;2023-01-15T15:53:30;5.90;99.90
13436;DHT22;6790;49.520;8.504;2023-01-15T15:55:58;5.90;99.90
13436;DHT22;6790;49.520;8.504;2023-01-15T15:58:32;5.80;99.90
13436;DHT22;6790;49.520;8.504;2023-01-15T16:01:00;5.90;99.90
13436;DHT22;6790;49.520;8.504;2023-01-15T16:03:28;6.00;99.90
13436;DHT22;6790;49.520;8.504;2023-01-15T16:05:55;5.90;99.90
13436;DHT22;6790;49.520;8.504;2023-01-15T16:08:23;6.00;99.90
13436;DHT22;6790;49.520;8.504;2023-01-15T16:10:52;5.90;99.90
13436;DHT22;6790;49.520;8.504;2023-01-15T16:13:23;5.80;99.90
13436;DHT22;6790;49.520;8.504;2023-01-15T16:15:52;5.90;99.90
13436;DHT22;6790;49.520;8.504;2023-01-15T16:18:25;5.90;99.90
13436;DHT22;6790;49.520;8.504;2023-01-15T16:20:52;6.00;99.90
13436;DHT22;6790;49.520;8.504;2023-01-15T16:23:26;6.00;99.90
13436;DHT22;6790;49.520;8.504;2023-01-15T16:28:26;5.80;99.90
13436;DHT22;6790;49.520;8.504;2023-01-15T16:30:57;5.80;99.90
13436;DHT22;6790;49.520;8.504;2023-01-15T16:33:24;5.80;99.90
13436;DHT22;6790;49.520;8.504;2023-01-15T16:35:58;5.90;99.90
13436;DHT22;6790;49.520;8.504;2023-01-15T16:38:24;5.80;99.90
13436;DHT22;6790;49.520;8.504;2023-01-15T16:40:51;5.90;99.90
13436;DHT22;6790;49.520;8.504;2023-01-15T16:43:22;6.00;99.90
13436;DHT22;6790;49.520;8.504;2023-01-15T16:48:26;6.10;99.90
13436;DHT22;6790;49.520;8.504;2023-01-15T16:50:54;6.00;99.90
13436;DHT22;6790;49.520;8.504;2023-01-15T16:53:38;6.00;99.90
13436;DHT22;6790;49.520;8.504;2023-01-15T16:59:02;6.10;99.90
13436;DHT22;6790;49.520;8.504;2023-01-15T17:01:39;6.00;99.90
13436;DHT22;6790;49.520;8.504;2023-01-15T17:04:30;6.00;99.90
13436;DHT22;6790;49.520;8.504;2023-01-15T17:06:59;6.00;99.90
13436;DHT22;6790;49.520;8.504;2023-01-15T17:09:27;6.20;99.90
13436;DHT22;6790;49.520;8.504;2023-01-15T17:11:55;6.20;99.90
13436;DHT22;6790;49.520;8.504;2023-01-15T17:14:23;6.10;99.90
13436;DHT22;6790;49.520;8.504;2023-01-15T17:19:48;6.10;99.90
13436;DHT22;6790;49.520;8.504;2023-01-15T17:22:24;6.10;99.90
13436;DHT22;6790;49.520;8.504;2023-01-15T17:24:59;6.10;99.90
13436;DHT22;6790;49.520;8.504;2023-01-15T17:27:26;6.20;99.90
13436;DHT22;6790;49.520;8.504;2023-01-15T17:29:53;6.10;99.90
13436;DHT22;6790;49.520;8.504;2023-01-15T17:32:30;6.10;99.90
13436;DHT22;6790;49.520;8.504;2023-01-15T17:34:56;6.10;99.90
13436;DHT22;6790;49.520;8.504;2023-01-15T17:37:22;6.00;99.90
13436;DHT22;6790;49.520;8.504;2023-01-15T17:39:48;5.90;99.90
13436;DHT22;6790;49.520;8.504;2023-01-15T17:42:16;6.00;99.90
13436;DHT22;6790;49.520;8.504;2023-01-15T17:44:43;6.00;99.90
13436;DHT22;6790;49.520;8.504;2023-01-15T17:47:09;6.00;99.90
13436;DHT22;6790;49.520;8.504;2023-01-15T17:49:35;6.00;99.90
13436;DHT22;6790;49.520;8.504;2023-01-15T17:52:06;6.00;99.90
13436;DHT22;6790;49.520;8.504;2023-01-15T17:54:33;6.10;99.90
13436;DHT22;6790;49.520;8.504;2023-01-15T17:57:17;6.20;99.90
13436;DHT22;6790;49.520;8.504;2023-01-15T18:00:01;6.20;99.90
13436;DHT22;6790;49.520;8.504;2023-01-15T18:02:46;6.20;99.90
13436;DHT22;6790;49.520;8.504;2023-01-15T18:05:30;6.30;99.90
13436;DHT22;6790;49.520;8.504;2023-01-15T18:08:02;6.30;99.90
13436;DHT22;6790;49.520;8.504;2023-01-15T18:10:30;6.20;99.90
13436;DHT22;6790;49.520;8.504;2023-01-15T18:12:56;6.20;99.90